createdAt,value
2023-04-24T00:02:25.387Z,39.09
2023-04-24T00:04:52.200Z,39.12
2023-04-24T00:07:18.707Z,39.13
2023-04-24T00:09:45.316Z,38.88
2023-04-24T00:12:12.154Z,39.43
2023-04-24T00:14:39.238Z,38.93
2023-04-24T00:17:05.745Z,39.46
2023-04-24T00:19:33.477Z,39.11
2023-04-24T00:21:59.967Z,39.46
2023-04-24T00:24:26.371Z,39.44
2023-04-24T00:26:52.971Z,39.55
2023-04-24T00:29:19.576Z,39.43
2023-04-24T00:31:46.431Z,39.33
2023-04-24T00:34:13.530Z,39.63
2023-04-24T00:36:40.313Z,39.60
2023-04-24T00:39:06.744Z,39.37
2023-04-24T00:41:33.545Z,39.89
2023-04-24T00:43:59.871Z,39.70
2023-04-24T00:46:26.297Z,39.21
2023-04-24T00:48:52.854Z,39.44
2023-04-24T00:51:19.721Z,39.93
2023-04-24T00:53:46.405Z,39.58
2023-04-24T00:56:14.121Z,39.36
2023-04-24T00:58:41.306Z,39.21
2023-04-24T01:01:08.425Z,39.21
2023-04-24T01:03:38.332Z,39.12
2023-04-24T01:06:06.119Z,39.29
2023-04-24T01:08:33.389Z,39.33
2023-04-24T01:11:00.094Z,39.45
2023-04-24T01:13:26.570Z,39.38
2023-04-24T01:15:52.970Z,39.72
2023-04-24T01:18:19.703Z,39.49
2023-04-24T01:20:47.803Z,39.30
2023-04-24T01:23:14.386Z,39.43
2023-04-24T01:25:41.197Z,39.42
2023-04-24T01:28:07.916Z,39.31
2023-04-24T01:30:34.681Z,39.20
2023-04-24T01:33:02.102Z,39.36
2023-04-24T01:35:28.652Z,39.20
2023-04-24T01:37:55.311Z,38.91
2023-04-24T01:40:22.200Z,39.07
2023-04-24T01:42:48.856Z,38.84
2023-04-24T01:45:15.270Z,38.44
2023-04-24T01:47:42.461Z,38.73
2023-04-24T01:50:09.592Z,38.81
2023-04-24T01:52:37.110Z,38.89
2023-04-24T01:55:05.388Z,38.64
2023-04-24T01:57:32.672Z,38.97
2023-04-24T01:59:59.333Z,38.64
2023-04-24T02:02:28.418Z,39.06
2023-04-24T02:04:55.352Z,39.27
2023-04-24T02:07:21.789Z,39.27
2023-04-24T02:09:48.529Z,38.99
2023-04-24T02:12:16.226Z,39.33
2023-04-24T02:14:43.413Z,39.21
2023-04-24T02:17:10.422Z,39.25
2023-04-24T02:19:36.852Z,38.64
2023-04-24T02:22:03.268Z,38.95
2023-04-24T02:24:29.887Z,38.77
2023-04-24T02:26:56.974Z,38.75
2023-04-24T02:29:23.980Z,38.87
2023-04-24T02:31:50.655Z,38.96
2023-04-24T02:34:17.353Z,38.82
2023-04-24T02:36:43.749Z,38.77
2023-04-24T02:39:10.705Z,39.33
2023-04-24T02:41:37.343Z,39.05
2023-04-24T02:44:03.714Z,39.19
2023-04-24T02:46:31.119Z,39.07
2023-04-24T02:48:57.501Z,39.47
2023-04-24T02:51:24.089Z,39.03
2023-04-24T02:53:50.481Z,39.30
2023-04-24T02:56:16.829Z,39.55
2023-04-24T02:58:43.461Z,39.22
2023-04-24T03:01:11.290Z,39.36
2023-04-24T03:03:39.864Z,39.42
2023-04-24T03:06:06.962Z,39.49
2023-04-24T03:08:33.360Z,39.35
2023-04-24T03:10:59.937Z,38.74
2023-04-24T03:13:26.404Z,38.70
2023-04-24T03:15:52.874Z,39.08
2023-04-24T03:18:19.374Z,38.77
2023-04-24T03:20:49.081Z,38.86
2023-04-24T03:23:16.168Z,38.98
2023-04-24T03:25:43.974Z,38.92
2023-04-24T03:28:10.633Z,38.89
2023-04-24T03:30:37.012Z,39.10
2023-04-24T03:33:03.712Z,39.37
2023-04-24T03:35:30.404Z,39.21
2023-04-24T03:37:56.801Z,39.32
2023-04-24T03:40:23.405Z,39.78
2023-04-24T03:42:49.776Z,40.00
2023-04-24T03:45:16.545Z,39.93
2023-04-24T03:47:43.185Z,39.86
2023-04-24T03:50:12.440Z,39.91
2023-04-24T03:52:39.342Z,40.04
2023-04-24T03:55:07.354Z,40.41
2023-04-24T03:57:33.962Z,40.29
2023-04-24T04:00:00.835Z,40.71
2023-04-24T04:02:27.287Z,40.13
2023-04-24T04:04:53.948Z,40.72
2023-04-24T04:07:20.455Z,40.40
2023-04-24T04:09:46.810Z,40.61
2023-04-24T04:12:13.719Z,40.63
2023-04-24T04:14:40.168Z,40.68
2023-04-24T04:17:06.515Z,40.82
2023-04-24T04:19:32.847Z,40.83
2023-04-24T04:22:00.062Z,40.82
2023-04-24T04:24:27.406Z,40.60
2023-04-24T04:26:57.569Z,40.56
2023-04-24T04:29:24.809Z,41.06
2023-04-24T04:31:51.291Z,40.68
2023-04-24T04:34:17.724Z,40.91
2023-04-24T04:36:45.276Z,41.08
2023-04-24T04:39:11.648Z,40.65
2023-04-24T04:41:38.869Z,40.82
2023-04-24T04:44:05.467Z,40.46
2023-04-24T04:46:34.611Z,40.66
2023-04-24T04:49:02.612Z,40.90
2023-04-24T04:51:29.224Z,40.76
2023-04-24T04:53:55.753Z,40.53
2023-04-24T04:56:23.233Z,40.82
2023-04-24T04:58:49.630Z,41.02
2023-04-24T05:01:16.003Z,40.58
2023-04-24T05:03:42.568Z,40.72
2023-04-24T05:06:09.295Z,40.66
2023-04-24T05:08:35.679Z,41.04
2023-04-24T05:11:02.349Z,40.92
2023-04-24T05:13:39.113Z,40.64
2023-04-24T05:16:07.454Z,40.50
2023-04-24T05:18:33.975Z,40.66
2023-04-24T05:21:00.310Z,40.87
2023-04-24T05:23:26.790Z,40.36
2023-04-24T05:25:53.272Z,40.89
2023-04-24T05:28:19.678Z,40.77
2023-04-24T05:30:46.414Z,40.77
2023-04-24T05:33:12.910Z,40.85
2023-04-24T05:35:46.540Z,40.94
2023-04-24T05:38:13.737Z,40.46
2023-04-24T05:40:40.557Z,40.73
2023-04-24T05:43:06.901Z,40.71
2023-04-24T05:45:33.232Z,40.93
2023-04-24T05:47:59.839Z,40.65
2023-04-24T05:50:26.210Z,40.73
2023-04-24T05:52:52.570Z,40.55
2023-04-24T05:55:19.379Z,41.00
2023-04-24T05:57:46.749Z,40.55
2023-04-24T06:00:13.503Z,40.70
2023-04-24T06:02:40.368Z,40.56
2023-04-24T06:05:07.281Z,41.07
2023-04-24T06:07:33.725Z,40.89
2023-04-24T06:10:00.007Z,40.91
2023-04-24T06:12:26.978Z,41.06
2023-04-24T06:14:53.369Z,40.58
2023-04-24T06:17:20.170Z,40.91
2023-04-24T06:19:46.856Z,40.83
2023-04-24T06:22:13.316Z,40.84
2023-04-24T06:24:41.250Z,41.01
2023-04-24T06:27:08.124Z,41.04
2023-04-24T06:29:35.253Z,40.85
2023-04-24T06:32:01.772Z,40.64
2023-04-24T06:34:28.447Z,41.44
2023-04-24T06:36:56.113Z,41.14
2023-04-24T06:39:22.512Z,41.26
2023-04-24T06:41:48.959Z,41.07
2023-04-24T06:44:16.292Z,41.60
2023-04-24T06:46:43.068Z,41.07
2023-04-24T06:49:09.903Z,41.36
2023-04-24T06:51:36.481Z,40.86
2023-04-24T06:54:02.938Z,41.13
2023-04-24T06:56:30.501Z,41.25
2023-04-24T06:58:57.002Z,41.45
2023-04-24T07:01:23.428Z,41.43
2023-04-24T07:03:50.133Z,41.55
2023-04-24T07:06:19.746Z,41.33
2023-04-24T07:08:46.413Z,41.21
2023-04-24T07:11:12.912Z,41.41
2023-04-24T07:13:42.670Z,41.31
2023-04-24T07:16:09.889Z,41.04
2023-04-24T07:18:37.462Z,41.07
2023-04-24T07:21:04.147Z,41.22
2023-04-24T07:23:31.929Z,41.45
2023-04-24T07:25:59.365Z,41.71
2023-04-24T07:28:25.764Z,41.19
2023-04-24T07:30:54.850Z,41.21
2023-04-24T07:33:21.562Z,41.29
2023-04-24T07:35:47.988Z,41.59
2023-04-24T07:38:14.717Z,41.12
2023-04-24T07:40:41.067Z,41.33
2023-04-24T07:43:07.364Z,41.36
2023-04-24T07:45:37.008Z,41.82
2023-04-24T07:48:03.570Z,41.26
2023-04-24T07:50:30.285Z,41.37
2023-04-24T07:52:56.708Z,41.72
2023-04-24T07:55:24.767Z,41.69
2023-04-24T07:57:52.866Z,41.38
2023-04-24T08:00:19.727Z,41.85
2023-04-24T08:02:46.529Z,41.48
2023-04-24T08:05:13.397Z,41.87
2023-04-24T08:07:39.993Z,41.72
2023-04-24T08:10:07.081Z,41.87
2023-04-24T08:12:33.434Z,41.83
2023-04-24T08:14:59.895Z,41.74
2023-04-24T08:17:27.093Z,41.87
2023-04-24T08:20:02.127Z,42.11
2023-04-24T08:22:29.430Z,41.69
2023-04-24T08:24:58.273Z,41.80
2023-04-24T08:27:25.061Z,41.99
2023-04-24T08:29:51.568Z,41.85
2023-04-24T08:32:18.187Z,42.04
2023-04-24T08:34:44.867Z,41.84
2023-04-24T08:37:12.040Z,41.73
2023-04-24T08:39:38.861Z,41.61
2023-04-24T08:42:09.323Z,41.44
2023-04-24T08:44:37.210Z,41.64
2023-04-24T08:47:04.198Z,41.74
2023-04-24T08:49:31.410Z,41.96
2023-04-24T08:51:58.067Z,42.66
2023-04-24T08:54:26.396Z,42.90
2023-04-24T08:56:55.347Z,43.16
2023-04-24T08:59:22.918Z,42.74
2023-04-24T09:01:52.568Z,42.84
2023-04-24T09:04:22.958Z,42.95
2023-04-24T09:06:56.846Z,43.17
2023-04-24T09:09:24.129Z,43.37
2023-04-24T09:11:51.974Z,43.10
2023-04-24T09:14:18.858Z,43.15
2023-04-24T09:16:45.948Z,43.20
2023-04-24T09:19:12.593Z,43.11
2023-04-24T09:21:44.308Z,43.46
2023-04-24T09:24:25.676Z,44.37
2023-04-24T09:27:00.097Z,44.01
2023-04-24T09:29:27.317Z,43.79
2023-04-24T09:31:54.709Z,43.87
2023-04-24T09:34:27.410Z,44.19
2023-04-24T09:36:55.559Z,43.94
2023-04-24T09:39:21.997Z,43.93
2023-04-24T09:41:55.409Z,44.52
2023-04-24T09:44:31.405Z,43.88
2023-04-24T09:47:00.170Z,44.29
2023-04-24T09:49:40.434Z,44.94
2023-04-24T09:52:10.161Z,44.68
2023-04-24T09:54:40.086Z,44.62
2023-04-24T09:57:09.024Z,45.16
2023-04-24T09:59:43.421Z,46.09
2023-04-24T10:02:20.755Z,45.81
2023-04-24T10:05:00.056Z,46.11
2023-04-24T10:07:27.422Z,45.44
2023-04-24T10:09:54.461Z,45.61
2023-04-24T10:12:21.833Z,45.66
2023-04-24T10:14:50.993Z,46.08
2023-04-24T10:17:18.110Z,46.09
2023-04-24T10:19:45.365Z,46.06
2023-04-24T10:22:12.553Z,46.33
2023-04-24T10:24:39.457Z,47.05
2023-04-24T10:27:06.939Z,46.92
2023-04-24T10:29:36.613Z,46.65
2023-04-24T10:32:03.193Z,46.69
2023-04-24T10:34:30.588Z,46.53
2023-04-24T10:36:58.436Z,46.50
2023-04-24T10:39:27.951Z,45.87
2023-04-24T10:41:58.589Z,45.97
2023-04-24T10:44:25.516Z,45.56
2023-04-24T10:46:56.406Z,45.92
2023-04-24T10:49:30.930Z,46.34
2023-04-24T10:52:03.314Z,46.42
2023-04-24T10:54:35.023Z,46.11
2023-04-24T10:57:20.450Z,46.88
2023-04-24T10:59:47.910Z,45.80
2023-04-24T11:02:18.886Z,46.31
2023-04-24T11:04:48.737Z,45.96
2023-04-24T11:07:15.760Z,46.34
2023-04-24T11:09:43.884Z,46.51
2023-04-24T11:12:12.048Z,46.46
2023-04-24T11:14:59.176Z,47.91
2023-04-24T11:17:38.672Z,47.95
2023-04-24T11:22:58.643Z,46.83
2023-04-24T11:25:25.818Z,46.96
2023-04-24T11:28:04.793Z,48.48
2023-04-24T11:30:32.462Z,47.22
2023-04-24T11:33:04.075Z,48.59
2023-04-24T11:35:31.744Z,47.70
2023-04-24T11:40:28.689Z,47.53
2023-04-24T11:43:00.546Z,47.94
2023-04-24T11:45:31.684Z,48.20
2023-04-24T11:47:59.819Z,47.46
2023-04-24T11:50:30.294Z,47.49
2023-04-24T11:52:57.152Z,47.40
2023-04-24T11:55:23.866Z,47.39
2023-04-24T11:57:51.964Z,47.75
2023-04-24T12:00:21.460Z,48.08
2023-04-24T12:02:52.379Z,48.28
2023-04-24T12:05:28.927Z,49.36
2023-04-24T12:07:55.518Z,47.83
2023-04-24T12:10:27.880Z,48.36
2023-04-24T12:12:56.317Z,47.75
2023-04-24T12:15:23.829Z,47.87
2023-04-24T12:17:52.953Z,48.00
2023-04-24T12:20:31.878Z,48.17
2023-04-24T12:23:00.604Z,48.16
2023-04-24T12:25:32.277Z,48.50
2023-04-24T12:28:04.734Z,48.87
2023-04-24T12:30:45.953Z,48.91
2023-04-24T12:33:12.930Z,48.34
2023-04-24T12:35:42.228Z,48.74
2023-04-24T12:38:16.718Z,48.67
2023-04-24T12:40:44.632Z,48.25
2023-04-24T12:43:16.643Z,48.40
2023-04-24T12:45:43.194Z,47.78
2023-04-24T12:48:09.579Z,47.63
2023-04-24T12:50:36.017Z,47.58
2023-04-24T12:53:02.472Z,47.33
2023-04-24T12:55:28.809Z,47.54
2023-04-24T12:57:56.319Z,47.35
2023-04-24T13:00:23.158Z,47.11
2023-04-24T13:02:50.047Z,47.27
2023-04-24T13:05:16.914Z,46.90
2023-04-24T13:07:43.319Z,46.64
2023-04-24T13:10:10.532Z,46.33
2023-04-24T13:12:37.627Z,46.07
2023-04-24T13:15:04.548Z,45.87
2023-04-24T13:17:31.294Z,45.89
2023-04-24T13:19:57.955Z,45.95
2023-04-24T13:22:24.796Z,45.54
2023-04-24T13:24:51.308Z,45.19
2023-04-24T13:27:18.914Z,45.01
2023-04-24T13:29:47.284Z,44.87
2023-04-24T13:32:14.061Z,44.84
2023-04-24T13:34:40.472Z,44.59
2023-04-24T13:37:07.036Z,44.13
2023-04-24T13:39:33.725Z,43.91
2023-04-24T13:42:01.578Z,44.15
2023-04-24T13:44:31.168Z,44.04
2023-04-24T13:46:59.295Z,44.02
2023-04-24T13:49:27.303Z,43.95
2023-04-24T13:51:55.542Z,43.91
2023-04-24T13:54:23.279Z,43.99
2023-04-24T13:56:50.863Z,43.88
2023-04-24T13:59:17.485Z,43.67
2023-04-24T14:01:46.210Z,43.74
2023-04-24T14:04:13.402Z,43.76
2023-04-24T14:06:40.210Z,43.52
2023-04-24T14:09:07.984Z,43.36
2023-04-24T14:11:35.332Z,43.30
2023-04-24T14:14:01.878Z,43.22
2023-04-24T14:16:29.736Z,43.24
2023-04-24T14:18:57.344Z,43.33
2023-04-24T14:21:23.751Z,43.17
2023-04-24T14:23:50.184Z,43.08
2023-04-24T14:26:16.553Z,43.26
2023-04-24T14:28:43.180Z,43.32
2023-04-24T14:31:10.367Z,43.36
2023-04-24T14:33:36.979Z,43.61
2023-04-24T14:36:05.289Z,43.17
2023-04-24T14:38:32.458Z,43.06
2023-04-24T14:41:07.064Z,43.03
2023-04-24T14:43:36.204Z,43.03
2023-04-24T14:46:03.803Z,42.65
2023-04-24T14:48:30.348Z,42.72
2023-04-24T14:50:56.944Z,42.46
2023-04-24T14:53:23.562Z,42.55
2023-04-24T14:55:50.257Z,42.48
2023-04-24T14:58:16.691Z,42.74
2023-04-24T15:00:43.110Z,42.57
2023-04-24T15:03:10.183Z,42.29
2023-04-24T15:05:37.594Z,41.77
2023-04-24T15:08:04.342Z,41.79
2023-04-24T15:10:30.871Z,41.73
2023-04-24T15:12:57.742Z,41.64
2023-04-24T15:15:24.387Z,42.22
2023-04-24T15:17:51.191Z,42.27
2023-04-24T15:20:18.881Z,42.68
2023-04-24T15:22:45.637Z,42.57
2023-04-24T15:25:12.223Z,42.89
2023-04-24T15:27:45.849Z,43.38
2023-04-24T15:30:13.710Z,43.57
2023-04-24T15:32:40.488Z,43.87
2023-04-24T15:35:08.998Z,43.89
2023-04-24T15:37:37.345Z,43.90
2023-04-24T15:40:06.452Z,44.36
2023-04-24T15:42:33.106Z,44.28
2023-04-24T15:44:59.642Z,44.18
2023-04-24T15:47:26.573Z,43.87
2023-04-24T15:49:54.435Z,44.24
2023-04-24T15:52:21.757Z,44.47
2023-04-24T15:54:48.182Z,44.27
2023-04-24T15:57:16.221Z,44.19
2023-04-24T15:59:42.815Z,44.14
2023-04-24T16:02:19.051Z,44.34
2023-04-24T16:04:51.389Z,44.43
2023-04-24T16:07:22.004Z,44.06
2023-04-24T16:09:48.593Z,43.69
2023-04-24T16:12:15.552Z,43.63
2023-04-24T16:14:42.133Z,43.50
2023-04-24T16:17:08.877Z,43.10
2023-04-24T16:19:35.505Z,43.30
2023-04-24T16:22:03.156Z,42.93
2023-04-24T16:24:30.252Z,42.92
2023-04-24T16:26:57.204Z,43.03
2023-04-24T16:29:25.330Z,43.07
2023-04-24T16:31:51.924Z,43.37
2023-04-24T16:34:18.518Z,43.17
2023-04-24T16:36:44.971Z,43.18
2023-04-24T16:39:12.983Z,43.20
2023-04-24T16:41:39.753Z,43.08
2023-04-24T16:44:06.324Z,43.33
2023-04-24T16:46:33.297Z,43.37
2023-04-24T16:49:00.209Z,43.55
2023-04-24T16:51:27.938Z,43.49
2023-04-24T16:53:54.616Z,43.77
2023-04-24T16:56:21.252Z,43.33
2023-04-24T16:58:47.926Z,43.37
2023-04-24T17:01:18.932Z,43.26
2023-04-24T17:03:47.236Z,42.77
2023-04-24T17:06:13.791Z,42.45
2023-04-24T17:08:40.553Z,42.61
2023-04-24T17:11:07.142Z,42.02
2023-04-24T17:13:33.648Z,41.97
2023-04-24T17:16:00.308Z,41.55
2023-04-24T17:18:27.708Z,41.60
2023-04-24T17:20:54.183Z,41.36
2023-04-24T17:23:20.792Z,41.29
2023-04-24T17:25:47.237Z,41.55
2023-04-24T17:28:25.805Z,40.73
2023-04-24T17:30:55.632Z,41.31
2023-04-24T17:33:22.257Z,40.89
2023-04-24T17:35:49.341Z,41.42
2023-04-24T17:38:16.454Z,41.03
2023-04-24T17:40:42.925Z,40.99
2023-04-24T17:43:09.509Z,41.32
2023-04-24T17:45:37.692Z,41.18
2023-04-24T17:48:04.724Z,40.67
2023-04-24T17:50:31.097Z,40.31
2023-04-24T17:52:57.768Z,40.35
2023-04-24T17:55:24.118Z,40.14
2023-04-24T17:57:52.092Z,40.32
2023-04-24T18:00:20.059Z,40.31
2023-04-24T18:02:46.640Z,40.36
2023-04-24T18:05:15.820Z,40.03
2023-04-24T18:07:42.474Z,40.67
2023-04-24T18:10:09.064Z,40.21
2023-04-24T18:12:35.699Z,40.24
2023-04-24T18:15:13.811Z,39.90
2023-04-24T18:17:41.147Z,40.14
2023-04-24T18:20:08.192Z,40.05
2023-04-24T18:22:37.923Z,40.32
2023-04-24T18:25:04.863Z,40.08
2023-04-24T18:27:31.708Z,40.14
2023-04-24T18:29:59.215Z,40.07
2023-04-24T18:32:26.571Z,40.22
2023-04-24T18:34:53.283Z,40.30
2023-04-24T18:37:20.004Z,40.08
2023-04-24T18:39:46.460Z,40.14
2023-04-24T18:42:12.830Z,40.37
2023-04-24T18:44:41.137Z,40.45
2023-04-24T18:47:08.394Z,40.49
2023-04-24T18:49:35.151Z,40.52
2023-04-24T18:52:01.952Z,40.40
2023-04-24T18:54:28.605Z,40.57
2023-04-24T18:56:56.660Z,40.76
2023-04-24T18:59:22.987Z,40.65
2023-04-24T19:01:49.448Z,40.33
2023-04-24T19:04:15.974Z,40.55
2023-04-24T19:06:42.739Z,40.68
2023-04-24T19:09:09.913Z,40.62
2023-04-24T19:11:36.516Z,40.84
2023-04-24T19:14:05.462Z,40.76
2023-04-24T19:16:32.555Z,40.60
2023-04-24T19:18:58.999Z,40.68
2023-04-24T19:21:26.052Z,40.86
2023-04-24T19:23:52.820Z,40.73
2023-04-24T19:26:19.204Z,40.84
2023-04-24T19:28:45.800Z,40.66
2023-04-24T19:31:12.199Z,41.10
2023-04-24T19:33:38.544Z,40.99
2023-04-24T19:36:05.781Z,40.92
2023-04-24T19:38:32.601Z,41.07
2023-04-24T19:40:58.952Z,41.31
2023-04-24T19:43:25.387Z,41.40
2023-04-24T19:45:51.852Z,41.26
2023-04-24T19:48:18.666Z,41.43
2023-04-24T19:50:48.049Z,41.35
2023-04-24T19:53:14.616Z,41.33
2023-04-24T19:55:41.159Z,41.77
2023-04-24T19:58:08.810Z,41.48
2023-04-24T20:00:35.537Z,41.27
2023-04-24T20:03:03.055Z,41.47
2023-04-24T20:05:29.896Z,41.64
2023-04-24T20:07:56.600Z,41.60
2023-04-24T20:10:23.137Z,41.58
2023-04-24T20:12:49.744Z,41.59
2023-04-24T20:15:16.464Z,42.11
2023-04-24T20:17:43.122Z,41.78
2023-04-24T20:20:10.143Z,41.93
2023-04-24T20:22:40.074Z,41.67
2023-04-24T20:25:11.434Z,41.72
2023-04-24T20:27:37.891Z,41.70
2023-04-24T20:30:04.935Z,41.86
2023-04-24T20:32:31.626Z,42.12
2023-04-24T20:34:58.679Z,42.36
2023-04-24T20:37:25.299Z,41.89
2023-04-24T20:39:52.130Z,42.37
2023-04-24T20:42:19.004Z,42.04
2023-04-24T20:44:45.892Z,41.79
2023-04-24T20:47:12.474Z,41.90
2023-04-24T20:49:38.922Z,41.79
2023-04-24T20:52:06.356Z,41.73
2023-04-24T20:54:32.939Z,42.09
2023-04-24T20:56:59.630Z,41.93
2023-04-24T20:59:26.248Z,41.72
2023-04-24T21:01:52.606Z,41.88
2023-04-24T21:04:19.006Z,41.61
2023-04-24T21:06:45.699Z,41.47
2023-04-24T21:09:12.297Z,41.86
2023-04-24T21:11:39.141Z,41.76
2023-04-24T21:14:05.644Z,41.69
2023-04-24T21:16:32.057Z,41.58
2023-04-24T21:18:58.456Z,41.76
2023-04-24T21:21:25.328Z,41.75
2023-04-24T21:23:51.998Z,41.87
2023-04-24T21:26:18.394Z,41.41
2023-04-24T21:28:44.884Z,41.52
2023-04-24T21:31:11.650Z,41.59
2023-04-24T21:33:38.658Z,41.59
2023-04-24T21:36:05.380Z,41.53
2023-04-24T21:38:32.097Z,41.52
2023-04-24T21:40:58.724Z,41.48
2023-04-24T21:43:33.735Z,41.37
2023-04-24T21:46:07.785Z,41.92
2023-04-24T21:48:34.248Z,41.49
2023-04-24T21:51:00.625Z,41.94
2023-04-24T21:53:29.393Z,41.78
2023-04-24T21:55:56.132Z,41.86
2023-04-24T21:58:23.033Z,41.48
2023-04-24T22:00:49.715Z,41.46
2023-04-24T22:03:17.095Z,41.28
2023-04-24T22:05:43.591Z,41.63
2023-04-24T22:08:10.708Z,41.31
2023-04-24T22:10:37.880Z,41.82
2023-04-24T22:13:04.299Z,41.54
2023-04-24T22:15:31.151Z,41.62
2023-04-24T22:17:57.666Z,41.26
2023-04-24T22:20:24.230Z,41.72
2023-04-24T22:22:50.837Z,41.60
2023-04-24T22:25:18.335Z,41.53
2023-04-24T22:27:44.701Z,41.69
2023-04-24T22:30:11.425Z,41.33
2023-04-24T22:32:38.591Z,41.91
2023-04-24T22:35:05.801Z,41.67
2023-04-24T22:37:32.185Z,41.89
2023-04-24T22:40:01.074Z,41.92
2023-04-24T22:42:29.302Z,41.67
2023-04-24T22:44:55.888Z,41.84
2023-04-24T22:47:22.634Z,41.62
2023-04-24T22:49:49.237Z,41.80
2023-04-24T22:52:17.245Z,42.03
2023-04-24T22:54:43.758Z,41.93
2023-04-24T22:57:12.485Z,41.86
2023-04-24T22:59:39.407Z,42.00
2023-04-24T23:02:05.912Z,41.68
2023-04-24T23:04:32.428Z,41.88
2023-04-24T23:06:58.866Z,42.04
2023-04-24T23:09:25.229Z,41.93
2023-04-24T23:11:51.882Z,41.68
2023-04-24T23:14:18.208Z,42.35
2023-04-24T23:16:46.067Z,42.25
2023-04-24T23:19:12.441Z,42.83
2023-04-24T23:21:38.821Z,42.41
2023-04-24T23:24:05.848Z,42.47
2023-04-24T23:26:32.263Z,42.70
2023-04-24T23:28:58.627Z,42.30
2023-04-24T23:31:25.137Z,42.67
2023-04-24T23:33:51.662Z,42.62
2023-04-24T23:36:18.212Z,43.30
2023-04-24T23:38:50.027Z,43.41
2023-04-24T23:41:17.248Z,43.23
2023-04-24T23:43:43.591Z,43.31
2023-04-24T23:46:10.066Z,42.93
2023-04-24T23:48:37.508Z,42.63
2023-04-24T23:51:04.013Z,42.60
2023-04-24T23:53:31.667Z,42.91
2023-04-24T23:55:58.037Z,43.31
2023-04-24T23:58:25.816Z,42.86
